createdAt,value
2023-02-19T00:02:06.389Z,1290.6421404682274
2023-02-19T00:09:07.739Z,1414.6354515050168
2023-02-19T00:18:02.527Z,1308.8929765886287
2023-02-19T00:24:35.039Z,1240.6354515050168
2023-02-19T00:31:06.633Z,1070.6688963210702
2023-02-19T00:37:44.402Z,1000.2842809364548
2023-02-19T00:53:17.511Z,938.7090301003344
2023-02-19T00:59:59.719Z,1042.1137123745818
2023-02-19T01:06:30.081Z,1082.628762541806
2023-02-19T01:13:03.089Z,883.0535117056857
2023-02-19T01:21:16.774Z,815.1672240802676
2023-02-19T01:27:53.065Z,852.6521739130435
2023-02-19T01:37:14.531Z,530.8294314381271
2023-02-19T01:48:43.434Z,497.7692307692308
2023-02-19T01:56:22.084Z,510.571906354515
2023-02-19T02:03:14.385Z,408.8026755852843
2023-02-19T02:10:01.426Z,424.4448160535117
2023-02-19T02:18:04.209Z,438.31103678929765
2023-02-19T02:25:11.852Z,421.9866220735786
2023-02-19T02:34:56.182Z,484.25418060200667
2023-02-19T02:41:31.137Z,509.6989966555184
2023-02-19T02:48:02.751Z,638.0066889632106
2023-02-19T02:54:35.959Z,679.4548494983278
2023-02-19T03:01:13.325Z,560.1571906354515
2023-02-19T03:07:45.757Z,654.5016722408027
2023-02-19T03:14:16.294Z,562.5752508361204
2023-02-19T03:20:54.463Z,463.3344481605351
2023-02-19T03:27:24.420Z,456.40133779264215
2023-02-19T03:33:54.678Z,340.45484949832775
2023-02-19T03:40:23.929Z,287.9297658862876
2023-02-19T03:46:56.771Z,248.18729096989966
2023-02-19T03:55:11.783Z,264.0802675585284
2023-02-19T04:02:17.495Z,218.8294314381271
2023-02-19T04:10:25.434Z,249.8829431438127
2023-02-19T04:17:09.200Z,316.0735785953177
2023-02-19T04:23:59.764Z,288.72240802675583
2023-02-19T04:30:35.262Z,297.44147157190633
2023-02-19T04:37:07.552Z,276.7123745819398
2023-02-19T04:52:03.786Z,234.7123745819398
2023-02-19T04:59:16.624Z,248.6086956521739
2023-02-19T05:09:23.418Z,243.85284280936455
2023-02-19T05:17:28.958Z,269.89966555183946
2023-02-19T05:26:04.137Z,287.44816053511704
2023-02-19T05:32:41.946Z,252.7826086956522
2023-02-19T05:39:11.114Z,225.68227424749165
2023-02-19T05:45:49.266Z,270.46153846153845
2023-02-19T05:52:28.510Z,287.66889632107024
2023-02-19T06:05:57.577Z,371.9096989966555
2023-02-19T06:16:43.185Z,387.8829431438127
2023-02-19T06:27:54.424Z,655.7759197324415
2023-02-19T06:34:26.065Z,1544.9397993311036
2023-02-19T06:41:13.263Z,1173.2709030100334
2023-02-19T06:50:47.989Z,2005.5250836120401
2023-02-19T06:57:50.225Z,564.8929765886288
2023-02-19T07:06:02.798Z,495.82274247491637
2023-02-19T07:12:50.151Z,316.3444816053512
2023-02-19T07:19:33.431Z,318.60200668896323
2023-02-19T07:30:18.854Z,342.371237458194
2023-02-19T07:36:54.830Z,489.7926421404682
2023-02-19T07:43:39.003Z,589.6053511705686
2023-02-19T07:53:50.099Z,680.809364548495
2023-02-19T08:07:34.440Z,710.0568561872909
2023-02-19T08:14:51.136Z,711.5919732441472
2023-02-19T08:22:03.304Z,772.2943143812709
2023-02-19T08:32:48.970Z,822.7023411371238
2023-02-19T08:47:39.590Z,1246.9665551839464
2023-02-19T08:54:21.167Z,1340.5986622073578
2023-02-19T09:01:10.913Z,1258.1137123745818
2023-02-19T09:08:30.611Z,1274.5284280936455
2023-02-19T09:30:08.280Z,1163.448160535117
2023-02-19T09:37:32.515Z,891.6020066889632
2023-02-19T09:44:12.328Z,918.7625418060201
2023-02-19T09:50:47.916Z,732.9632107023411
2023-02-19T10:05:22.663Z,512.1973244147157
2023-02-19T10:18:25.002Z,358.1638795986622
2023-02-19T10:25:20.495Z,315.943143812709
2023-02-19T10:38:23.011Z,248.3979933110368
2023-02-19T10:44:59.250Z,210.37123745819397
2023-02-19T10:51:37.903Z,239.31772575250835
2023-02-19T10:58:29.484Z,411.68227424749165
2023-02-19T11:05:16.460Z,319.25418060200667
2023-02-19T11:12:49.807Z,331.3545150501672
2023-02-19T11:24:59.520Z,312.4314381270903
2023-02-19T11:31:38.350Z,226.7257525083612
2023-02-19T11:38:17.437Z,294.7123745819398
2023-02-19T11:47:35.897Z,348.0200668896321
2023-02-19T11:55:15.751Z,450.9933110367893
2023-02-19T12:01:51.771Z,485.1371237458194
2023-02-19T12:08:29.708Z,474.55183946488296
2023-02-19T12:15:07.280Z,285.38127090301003
2023-02-19T12:27:58.642Z,237.73244147157192
2023-02-19T12:37:46.338Z,354.76254180602007
2023-02-19T12:44:26.144Z,283.5752508361204
2023-02-19T12:53:43.004Z,382.0635451505017
2023-02-19T13:08:12.247Z,356.5785953177257
2023-02-19T13:15:10.787Z,295.89632107023414
2023-02-19T13:25:36.433Z,240.45150501672242
2023-02-19T13:32:21.898Z,176.12709030100334
2023-02-19T13:45:58.138Z,208.1839464882943
2023-02-19T13:54:27.514Z,130.63545150501673
2023-02-19T14:04:04.880Z,333.38127090301003
2023-02-19T14:11:44.256Z,298.5150501672241
2023-02-19T14:18:32.886Z,336.6421404682274
2023-02-19T14:25:12.218Z,793.5150501672241
2023-02-19T14:33:20.335Z,744.2006688963211
2023-02-19T14:44:31.864Z,303.6521739130435
2023-02-19T14:51:28.103Z,250.0133779264214
2023-02-19T15:00:14.584Z,327.33110367892976
2023-02-19T15:07:01.144Z,340.2240802675585
2023-02-19T15:13:50.677Z,234.89297658862876
2023-02-19T15:20:48.262Z,274.0836120401338
2023-02-19T15:27:53.784Z,264.0602006688963
2023-02-19T15:34:37.361Z,223.06354515050168
2023-02-19T15:41:29.301Z,281.3076923076923
2023-02-19T15:59:51.577Z,265.8361204013378
2023-02-19T16:08:57.740Z,224.69899665551839
2023-02-19T16:33:40.372Z,239.8494983277592
2023-02-19T16:49:38.514Z,380.3678929765886
2023-02-19T16:56:37.895Z,425.61872909698997
2023-02-19T17:14:00.361Z,436.7859531772575
2023-02-19T17:20:33.486Z,491.3578595317726
2023-02-19T17:27:18.158Z,581.2274247491639
2023-02-19T17:34:26.555Z,666.5418060200669
2023-02-19T17:42:02.198Z,730.5150501672241
2023-02-19T18:02:50.612Z,1212.2207357859531
2023-02-19T18:10:42.598Z,1906.284280936455
2023-02-19T18:17:26.027Z,2130.3010033444816
2023-02-19T18:23:58.945Z,2536.9966555183946
2023-02-19T18:30:31.332Z,2540.61872909699
2023-02-19T18:37:39.928Z,3864.8528428093646
2023-02-19T18:44:21.803Z,1528.1137123745818
2023-02-19T18:50:57.188Z,1332.2307692307693
2023-02-19T18:57:50.526Z,1087.675585284281
2023-02-19T19:04:44.999Z,1233.371237458194
2023-02-19T19:11:31.328Z,1202.468227424749
2023-02-19T19:21:16.500Z,1404.4113712374583
2023-02-19T19:31:49.465Z,1604.056856187291
2023-02-19T19:44:22.848Z,1321.0635451505016
2023-02-19T19:51:04.788Z,1263.190635451505
2023-02-19T19:57:54.549Z,1164.7023411371238
2023-02-19T20:12:50.562Z,2201.879598662207
2023-02-19T20:19:21.923Z,1076.1070234113713
2023-02-19T20:26:39.950Z,929.1170568561873
2023-02-19T20:34:21.457Z,1119.9832775919733
2023-02-19T20:43:56.434Z,765.0903010033445
2023-02-19T20:50:27.319Z,696.8026755852843
2023-02-19T21:02:02.770Z,1315.7458193979933
2023-02-19T21:08:30.146Z,1339.9665551839464
2023-02-19T21:29:25.805Z,2181.511705685619
2023-02-19T21:36:02.355Z,2761.7157190635453
2023-02-19T21:46:04.756Z,2271.551839464883
2023-02-19T21:58:02.702Z,2996.3377926421404
2023-02-19T22:04:34.935Z,3377.408026755853
2023-02-19T22:11:05.549Z,2815.2441471571906
2023-02-19T22:17:46.237Z,2082.6521739130435
2023-02-19T22:31:37.358Z,1199.3076923076924
2023-02-19T22:38:25.805Z,703.695652173913
2023-02-19T22:45:48.421Z,676.0234113712374
2023-02-19T22:54:00.835Z,646.1036789297659
2023-02-19T23:05:35.155Z,607.3244147157191
2023-02-19T23:18:28.442Z,647.257525083612
2023-02-19T23:24:55.694Z,626.2876254180602
2023-02-19T23:32:02.018Z,621.1404682274248
2023-02-19T23:39:19.633Z,598.2642140468228
2023-02-19T23:47:29.231Z,606.6521739130435
2023-02-19T23:55:47.219Z,561.9832775919732
